createdAt,value
2023-03-26T00:01:28.487Z,65.10
2023-03-26T00:03:59.100Z,65.50
2023-03-26T00:06:31.721Z,65.40
2023-03-26T00:09:01.635Z,65.70
2023-03-26T00:11:32.334Z,65.90
2023-03-26T00:14:02.093Z,66.20
2023-03-26T00:16:34.186Z,66.30
2023-03-26T00:19:05.731Z,66.60
2023-03-26T00:21:35.618Z,66.20
2023-03-26T00:24:13.454Z,65.90
2023-03-26T00:26:43.373Z,65.90
2023-03-26T00:29:13.861Z,65.50
2023-03-26T00:31:47.763Z,65.10
2023-03-26T00:34:19.882Z,65.20
2023-03-26T00:36:49.683Z,65.10
2023-03-26T00:39:19.421Z,64.90
2023-03-26T00:41:49.516Z,64.40
2023-03-26T00:44:19.292Z,64.40
2023-03-26T00:46:49.418Z,63.90
2023-03-26T00:49:20.380Z,64.10
2023-03-26T00:51:50.087Z,63.90
2023-03-26T00:54:19.794Z,64.00
2023-03-26T00:56:49.559Z,63.40
2023-03-26T00:59:19.358Z,62.90
2023-03-26T01:01:49.003Z,62.40
2023-03-26T01:04:32.472Z,62.20
2023-03-26T01:07:05.785Z,61.40
2023-03-26T01:09:39.504Z,61.20
2023-03-26T01:12:13.198Z,61.00
2023-03-26T01:14:43.698Z,60.30
2023-03-26T01:17:15.524Z,59.90
2023-03-26T01:20:13.021Z,60.00
2023-03-26T01:22:47.883Z,59.80
2023-03-26T01:25:17.807Z,59.60
2023-03-26T01:27:52.375Z,59.80
2023-03-26T01:30:46.966Z,59.70
2023-03-26T01:33:38.326Z,59.70
2023-03-26T01:36:35.032Z,59.60
2023-03-26T01:39:40.811Z,59.30
2023-03-26T01:42:23.121Z,59.40
2023-03-26T01:45:10.149Z,59.10
2023-03-26T01:47:42.762Z,58.80
2023-03-26T01:50:13.052Z,58.90
2023-03-26T01:52:42.963Z,58.50
2023-03-26T01:55:14.363Z,58.30
2023-03-26T01:58:19.614Z,58.20
2023-03-26T02:01:04.617Z,57.70
2023-03-26T02:03:41.138Z,57.60
2023-03-26T02:06:39.300Z,57.00
2023-03-26T02:09:16.598Z,56.50
2023-03-26T02:11:47.360Z,57.10
2023-03-26T02:14:18.281Z,56.20
2023-03-26T02:16:48.495Z,56.20
2023-03-26T02:19:23.010Z,55.70
2023-03-26T02:21:53.356Z,54.70
2023-03-26T02:24:23.119Z,54.40
2023-03-26T02:26:52.956Z,54.00
2023-03-26T02:29:31.241Z,54.40
2023-03-26T02:32:01.513Z,54.90
2023-03-26T02:34:31.395Z,54.20
2023-03-26T02:37:01.136Z,53.30
2023-03-26T02:39:30.985Z,53.70
2023-03-26T02:42:00.858Z,52.50
2023-03-26T02:44:30.929Z,52.70
2023-03-26T02:47:00.788Z,52.80
2023-03-26T02:49:30.763Z,52.60
2023-03-26T02:52:01.233Z,52.60
2023-03-26T02:54:31.400Z,52.30
2023-03-26T02:57:01.337Z,51.40
2023-03-26T02:59:30.979Z,51.90
2023-03-26T03:02:00.768Z,51.80
2023-03-26T03:04:30.508Z,51.80
2023-03-26T03:07:01.657Z,51.10
2023-03-26T03:09:31.418Z,51.00
2023-03-26T03:12:01.171Z,51.10
2023-03-26T03:14:30.934Z,51.30
2023-03-26T03:17:00.673Z,50.60
2023-03-26T03:19:33.857Z,50.80
2023-03-26T03:22:03.537Z,50.40
2023-03-26T03:24:35.486Z,50.10
2023-03-26T03:27:05.997Z,50.00
2023-03-26T03:29:35.671Z,49.80
2023-03-26T03:32:12.980Z,50.10
2023-03-26T03:35:40.640Z,49.70
2023-03-26T03:38:14.365Z,49.60
2023-03-26T03:40:44.660Z,49.60
2023-03-26T03:43:14.437Z,49.20
2023-03-26T03:45:44.447Z,49.20
2023-03-26T03:48:14.409Z,49.00
2023-03-26T03:50:44.203Z,49.10
2023-03-26T03:53:17.649Z,48.20
2023-03-26T03:55:54.795Z,48.30
2023-03-26T03:58:26.534Z,48.20
2023-03-26T04:01:02.547Z,48.10
2023-03-26T04:03:33.393Z,47.70
2023-03-26T04:06:08.569Z,47.60
2023-03-26T04:08:38.588Z,47.50
2023-03-26T04:11:08.584Z,48.30
2023-03-26T04:13:41.020Z,47.70
2023-03-26T04:16:13.162Z,47.40
2023-03-26T04:18:44.785Z,47.60
2023-03-26T04:21:17.636Z,46.90
2023-03-26T04:23:53.526Z,46.10
2023-03-26T04:26:30.003Z,47.00
2023-03-26T04:29:07.168Z,45.90
2023-03-26T04:31:39.558Z,46.50
2023-03-26T04:34:22.669Z,46.20
2023-03-26T04:36:58.720Z,46.30
2023-03-26T04:39:32.721Z,46.00
2023-03-26T04:42:05.682Z,45.30
2023-03-26T04:44:38.165Z,45.30
2023-03-26T04:47:16.963Z,44.60
2023-03-26T04:49:56.854Z,44.00
2023-03-26T04:52:29.165Z,43.90
2023-03-26T04:55:02.118Z,43.10
2023-03-26T04:57:56.158Z,42.60
2023-03-26T05:00:35.963Z,41.50
2023-03-26T05:03:07.208Z,41.60
2023-03-26T05:05:40.499Z,41.90
2023-03-26T05:08:39.470Z,40.40
2023-03-26T05:11:13.244Z,39.80
2023-03-26T05:13:44.521Z,37.50
2023-03-26T05:16:14.230Z,39.00
2023-03-26T05:18:43.926Z,38.40
2023-03-26T05:21:13.643Z,33.60
2023-03-26T05:23:43.406Z,34.50
2023-03-26T05:26:13.242Z,35.10
2023-03-26T05:28:42.944Z,33.90
2023-03-26T05:31:13.161Z,35.00
2023-03-26T05:33:42.946Z,31.50
2023-03-26T05:36:17.585Z,32.10
2023-03-26T05:38:51.640Z,31.90
2023-03-26T05:41:21.450Z,32.10
2023-03-26T05:43:51.301Z,32.90
2023-03-26T05:46:21.991Z,33.40
2023-03-26T05:48:53.740Z,32.20
2023-03-26T05:51:25.142Z,32.90
2023-03-26T05:53:54.949Z,33.30
2023-03-26T05:56:25.147Z,33.90
2023-03-26T05:58:54.850Z,33.50
2023-03-26T06:01:27.237Z,33.60
2023-03-26T06:03:57.328Z,33.80
2023-03-26T06:06:27.747Z,34.20
2023-03-26T06:09:01.162Z,32.90
2023-03-26T06:11:33.783Z,34.30
2023-03-26T06:14:05.105Z,34.30
2023-03-26T06:16:35.683Z,34.70
2023-03-26T06:19:05.444Z,34.70
2023-03-26T06:21:35.304Z,33.80
2023-03-26T06:24:05.019Z,34.20
2023-03-26T06:26:34.667Z,34.60
2023-03-26T06:29:04.506Z,35.00
2023-03-26T06:31:34.201Z,34.60
2023-03-26T06:34:03.856Z,34.50
2023-03-26T06:36:33.852Z,35.00
2023-03-26T06:39:07.758Z,35.60
2023-03-26T06:41:38.326Z,36.30
2023-03-26T06:44:08.032Z,36.00
2023-03-26T06:46:37.989Z,36.50
2023-03-26T06:49:08.301Z,37.10
2023-03-26T06:51:40.217Z,36.90
2023-03-26T06:54:09.892Z,36.10
2023-03-26T06:56:39.876Z,35.80
2023-03-26T06:59:09.717Z,36.10
2023-03-26T07:01:39.484Z,36.80
2023-03-26T07:04:09.209Z,36.60
2023-03-26T07:06:38.973Z,35.80
2023-03-26T07:09:08.724Z,35.80
2023-03-26T07:11:38.436Z,36.00
2023-03-26T07:14:08.394Z,36.20
2023-03-26T07:16:38.164Z,35.30
2023-03-26T07:19:07.778Z,35.60
2023-03-26T07:21:37.797Z,35.30
2023-03-26T07:24:15.944Z,36.30
2023-03-26T07:27:12.250Z,36.00
2023-03-26T07:29:51.735Z,35.60
2023-03-26T07:32:30.743Z,36.00
2023-03-26T07:35:39.705Z,36.40
2023-03-26T07:38:37.952Z,37.00
2023-03-26T07:41:32.032Z,36.30
2023-03-26T07:44:29.257Z,36.80
2023-03-26T07:47:01.328Z,37.20
2023-03-26T07:49:33.124Z,37.00
2023-03-26T07:52:03.109Z,37.40
2023-03-26T07:54:32.885Z,36.80
2023-03-26T07:57:07.982Z,37.40
2023-03-26T08:00:02.012Z,36.80
2023-03-26T08:03:11.327Z,36.30
2023-03-26T08:06:05.969Z,37.40
2023-03-26T08:09:07.608Z,37.40
2023-03-26T08:12:02.764Z,37.30
2023-03-26T08:14:59.262Z,36.30
2023-03-26T08:17:55.182Z,36.90
2023-03-26T08:20:49.843Z,36.90
2023-03-26T08:23:50.907Z,36.20
2023-03-26T08:26:48.927Z,36.90
2023-03-26T08:29:59.736Z,37.00
2023-03-26T08:32:29.546Z,37.00
2023-03-26T08:35:01.784Z,36.70
2023-03-26T08:37:31.590Z,36.20
2023-03-26T08:52:44.328Z,35.50
2023-03-26T08:55:42.606Z,33.90
2023-03-26T08:58:51.979Z,34.40
2023-03-26T09:02:00.916Z,34.30
2023-03-26T09:05:05.979Z,34.40
2023-03-26T09:08:05.994Z,33.80
2023-03-26T09:11:15.078Z,33.80
2023-03-26T09:14:24.056Z,32.30
2023-03-26T09:17:25.576Z,30.90
2023-03-26T09:20:29.963Z,31.40
2023-03-26T09:23:38.911Z,32.10
2023-03-26T09:26:48.811Z,30.50
2023-03-26T09:29:57.821Z,31.60
2023-03-26T09:32:51.151Z,31.60
2023-03-26T09:36:00.215Z,31.10
2023-03-26T09:38:47.849Z,32.00
2023-03-26T09:41:57.024Z,31.90
2023-03-26T09:44:53.241Z,32.10
2023-03-26T09:47:54.657Z,31.50
2023-03-26T09:50:55.880Z,31.30
2023-03-26T09:54:05.171Z,31.30
2023-03-26T09:57:00.604Z,31.40
2023-03-26T09:59:59.606Z,31.10
2023-03-26T10:03:08.488Z,31.50
2023-03-26T10:05:55.818Z,30.50
2023-03-26T10:08:46.038Z,31.50
2023-03-26T10:11:27.337Z,30.60
2023-03-26T10:14:26.488Z,31.50
2023-03-26T10:17:30.149Z,31.80
2023-03-26T10:20:29.398Z,31.90
2023-03-26T10:23:27.788Z,32.10
2023-03-26T10:26:29.229Z,32.10
2023-03-26T10:29:27.667Z,32.10
2023-03-26T10:32:19.964Z,31.40
2023-03-26T10:35:29.059Z,31.70
2023-03-26T10:38:16.456Z,32.00
2023-03-26T10:40:56.160Z,31.90
2023-03-26T10:44:08.401Z,31.80
2023-03-26T10:47:10.099Z,31.50
2023-03-26T10:50:10.747Z,32.00
2023-03-26T10:53:03.860Z,31.90
2023-03-26T10:55:48.413Z,32.00
2023-03-26T10:58:48.480Z,32.20
2023-03-26T11:01:44.844Z,32.10
2023-03-26T11:04:41.694Z,32.50
2023-03-26T11:07:40.121Z,32.60
2023-03-26T11:10:28.743Z,32.70
2023-03-26T11:13:28.435Z,32.90
2023-03-26T11:16:06.556Z,33.00
2023-03-26T11:19:02.724Z,33.10
2023-03-26T11:21:47.024Z,33.20
2023-03-26T11:24:53.339Z,33.20
2023-03-26T11:27:38.725Z,33.40
2023-03-26T11:30:43.211Z,33.80
2023-03-26T11:33:18.641Z,33.90
2023-03-26T11:35:52.522Z,34.10
2023-03-26T11:38:45.338Z,34.30
2023-03-26T11:41:30.189Z,34.50
2023-03-26T11:44:07.658Z,34.60
2023-03-26T11:46:41.978Z,34.90
2023-03-26T11:49:14.648Z,35.00
2023-03-26T11:51:47.329Z,35.10
2023-03-26T11:54:18.032Z,35.30
2023-03-26T11:57:16.532Z,35.40
2023-03-26T12:00:19.559Z,35.60
2023-03-26T12:02:51.085Z,35.80
2023-03-26T12:05:28.147Z,35.80
2023-03-26T12:08:00.796Z,35.90
2023-03-26T12:10:40.437Z,36.00
2023-03-26T12:13:49.162Z,36.10
2023-03-26T12:16:22.544Z,36.00
2023-03-26T12:19:20.903Z,36.10
2023-03-26T12:21:54.464Z,36.40
2023-03-26T12:24:37.683Z,36.60
2023-03-26T12:27:30.156Z,36.60
2023-03-26T12:30:14.742Z,36.60
2023-03-26T12:32:47.040Z,36.70
2023-03-26T12:35:20.566Z,36.80
2023-03-26T12:37:50.408Z,37.00
2023-03-26T12:40:37.440Z,37.20
2023-03-26T12:44:48.896Z,37.50
2023-03-26T12:47:56.075Z,37.40
2023-03-26T12:49:25.853Z,37.90
2023-03-26T12:52:21.431Z,37.60
2023-03-26T12:55:30.629Z,37.70
2023-03-26T12:58:39.963Z,37.90
2023-03-26T13:01:29.165Z,38.30
2023-03-26T13:04:15.763Z,38.20
2023-03-26T13:07:00.301Z,38.10
2023-03-26T13:09:59.688Z,38.10
2023-03-26T13:12:49.619Z,38.10
2023-03-26T13:15:46.256Z,38.20
2023-03-26T13:18:55.105Z,38.30
2023-03-26T13:22:03.772Z,38.50
2023-03-26T13:24:52.988Z,38.90
2023-03-26T13:27:50.234Z,39.30
2023-03-26T13:30:45.629Z,39.50
2023-03-26T13:33:45.274Z,39.70
2023-03-26T13:36:46.142Z,39.80
2023-03-26T13:39:26.195Z,40.10
2023-03-26T13:42:38.526Z,40.30
2023-03-26T13:45:41.704Z,40.70
2023-03-26T13:48:30.466Z,40.80
2023-03-26T13:51:13.122Z,40.90
2023-03-26T13:53:51.478Z,41.10
2023-03-26T13:56:28.387Z,41.30
2023-03-26T13:59:31.582Z,41.30
2023-03-26T14:02:07.959Z,41.60
2023-03-26T14:04:49.678Z,41.80
2023-03-26T14:07:31.216Z,41.90
2023-03-26T14:10:09.241Z,42.10
2023-03-26T14:13:11.044Z,42.50
2023-03-26T14:15:48.874Z,42.40
2023-03-26T14:18:50.479Z,42.60
2023-03-26T14:21:51.384Z,42.80
2023-03-26T14:24:47.244Z,43.00
2023-03-26T14:27:41.404Z,43.20
2023-03-26T14:30:41.275Z,43.40
2023-03-26T14:33:47.449Z,43.60
2023-03-26T14:36:55.403Z,44.00
2023-03-26T14:40:07.410Z,44.10
2023-03-26T14:42:55.927Z,44.40
2023-03-26T14:45:53.758Z,44.70
2023-03-26T14:48:51.429Z,44.60
2023-03-26T14:51:48.555Z,44.90
2023-03-26T14:54:25.360Z,45.00
2023-03-26T14:57:26.513Z,45.20
2023-03-26T15:00:35.526Z,45.30
2023-03-26T15:03:44.338Z,45.80
2023-03-26T15:06:46.864Z,46.00
2023-03-26T15:09:55.743Z,46.10
2023-03-26T15:13:05.146Z,46.70
2023-03-26T15:16:11.084Z,46.90
2023-03-26T15:19:20.407Z,47.70
2023-03-26T15:22:29.220Z,48.40
2023-03-26T15:25:38.130Z,48.50
2023-03-26T15:28:47.478Z,49.50
2023-03-26T15:31:56.265Z,48.90
2023-03-26T15:35:02.251Z,48.80
2023-03-26T15:38:10.999Z,48.70
2023-03-26T15:41:13.039Z,48.70
2023-03-26T15:44:22.819Z,48.90
2023-03-26T15:47:03.841Z,48.80
2023-03-26T15:49:57.033Z,48.80
2023-03-26T15:52:38.152Z,49.10
2023-03-26T15:55:32.786Z,49.10
2023-03-26T15:58:25.720Z,50.20
2023-03-26T16:01:35.599Z,49.70
2023-03-26T16:04:50.346Z,50.00
2023-03-26T16:08:00.363Z,50.30
2023-03-26T16:11:09.825Z,50.50
2023-03-26T16:14:10.170Z,50.50
2023-03-26T16:17:00.837Z,50.80
2023-03-26T16:20:09.972Z,50.70
2023-03-26T16:23:03.604Z,51.20
2023-03-26T16:25:36.395Z,51.40
2023-03-26T16:28:30.526Z,51.20
2023-03-26T16:31:37.924Z,51.60
2023-03-26T16:34:30.181Z,51.60
2023-03-26T16:37:01.640Z,51.60
2023-03-26T16:39:45.331Z,51.60
2023-03-26T16:42:41.347Z,51.60
2023-03-26T16:45:31.624Z,51.70
2023-03-26T16:48:32.396Z,51.80
2023-03-26T16:51:41.503Z,51.80
2023-03-26T16:54:50.231Z,51.60
2023-03-26T16:57:35.825Z,51.60
2023-03-26T17:00:31.064Z,51.70
2023-03-26T17:03:35.705Z,51.80
2023-03-26T17:06:09.863Z,52.20
2023-03-26T17:09:00.229Z,52.40
2023-03-26T17:11:56.744Z,52.30
2023-03-26T17:15:07.641Z,52.40
2023-03-26T17:18:04.921Z,52.50
2023-03-26T17:20:59.419Z,52.40
2023-03-26T17:23:47.843Z,52.60
2023-03-26T17:26:56.897Z,52.60
2023-03-26T17:30:02.332Z,52.70
2023-03-26T17:33:11.194Z,52.80
2023-03-26T17:35:47.771Z,53.00
2023-03-26T17:38:56.485Z,53.10
2023-03-26T17:41:54.458Z,53.30
2023-03-26T17:44:46.724Z,53.40
2023-03-26T17:47:29.327Z,53.20
2023-03-26T17:50:31.579Z,53.40
2023-03-26T17:53:23.046Z,53.60
2023-03-26T17:55:54.108Z,53.50
2023-03-26T17:58:37.136Z,53.40
2023-03-26T18:01:28.861Z,53.40
2023-03-26T18:04:02.087Z,53.70
2023-03-26T18:07:06.944Z,53.60
2023-03-26T18:10:14.580Z,53.80
2023-03-26T18:13:23.415Z,53.80
2023-03-26T18:16:15.911Z,54.00
2023-03-26T18:18:59.660Z,54.20
2023-03-26T18:21:39.161Z,54.50
2023-03-26T18:24:15.504Z,54.80
2023-03-26T18:26:55.870Z,54.90
2023-03-26T18:29:31.048Z,55.60
2023-03-26T18:32:04.207Z,55.80
2023-03-26T18:34:35.838Z,55.90
2023-03-26T18:37:30.575Z,55.90
2023-03-26T18:40:21.886Z,56.10
2023-03-26T18:43:00.478Z,56.30
2023-03-26T18:45:38.965Z,56.40
2023-03-26T18:48:22.994Z,56.60
2023-03-26T18:50:59.079Z,56.60
2023-03-26T18:53:41.083Z,56.50
2023-03-26T18:56:49.983Z,56.60
2023-03-26T18:59:42.923Z,56.60
2023-03-26T19:02:16.185Z,57.10
2023-03-26T19:04:47.355Z,57.10
2023-03-26T19:07:24.453Z,57.10
2023-03-26T19:09:58.024Z,56.80
2023-03-26T19:12:37.358Z,56.90
2023-03-26T19:15:18.878Z,57.30
2023-03-26T19:17:53.113Z,57.40
2023-03-26T19:20:29.694Z,57.80
2023-03-26T19:23:00.321Z,57.60
2023-03-26T19:25:41.784Z,57.50
2023-03-26T19:28:37.388Z,57.50
2023-03-26T19:31:34.548Z,57.50
2023-03-26T19:34:27.852Z,57.50
2023-03-26T19:37:01.059Z,57.60
2023-03-26T19:39:48.184Z,57.70
2023-03-26T19:42:23.104Z,57.80
2023-03-26T19:44:53.706Z,57.90
2023-03-26T19:47:35.552Z,57.90
2023-03-26T19:50:35.160Z,57.80
2023-03-26T19:53:30.008Z,58.00
2023-03-26T19:56:20.386Z,58.10
2023-03-26T19:58:51.687Z,58.10
2023-03-26T20:01:25.350Z,58.20
2023-03-26T20:03:59.458Z,58.20
2023-03-26T20:06:43.199Z,58.20
2023-03-26T20:09:14.924Z,58.30
2023-03-26T20:11:44.684Z,58.30
2023-03-26T20:14:19.797Z,58.50
2023-03-26T20:16:49.549Z,58.60
2023-03-26T20:19:19.271Z,58.50
2023-03-26T20:21:48.973Z,58.70
2023-03-26T20:24:21.024Z,58.80
2023-03-26T20:26:50.726Z,58.70
2023-03-26T20:29:21.494Z,58.80
2023-03-26T20:31:51.674Z,58.90
2023-03-26T20:34:26.174Z,59.10
2023-03-26T20:37:01.310Z,58.90
2023-03-26T20:39:31.570Z,59.10
2023-03-26T20:42:01.216Z,59.60
2023-03-26T20:44:30.903Z,60.30
2023-03-26T20:47:00.795Z,60.20
2023-03-26T20:49:31.066Z,60.70
2023-03-26T20:52:02.136Z,61.10
2023-03-26T20:54:32.002Z,61.40
2023-03-26T20:57:01.759Z,61.20
2023-03-26T20:59:31.993Z,61.40
2023-03-26T21:02:01.969Z,61.80
2023-03-26T21:04:31.786Z,62.00
2023-03-26T21:07:11.077Z,62.00
2023-03-26T21:09:46.500Z,62.20
2023-03-26T21:12:35.720Z,62.30
2023-03-26T21:15:13.506Z,62.50
2023-03-26T21:17:52.795Z,62.30
2023-03-26T21:20:23.307Z,62.30
2023-03-26T21:23:18.785Z,62.50
2023-03-26T21:26:20.654Z,62.30
2023-03-26T21:28:51.657Z,62.50
2023-03-26T21:31:25.727Z,62.60
2023-03-26T21:33:56.905Z,63.00
2023-03-26T21:36:26.915Z,63.00
2023-03-26T21:38:57.309Z,63.10
2023-03-26T21:41:37.627Z,63.20
2023-03-26T21:44:07.362Z,63.00
2023-03-26T21:46:37.529Z,63.30
2023-03-26T21:49:07.663Z,63.30
2023-03-26T21:51:38.099Z,63.20
2023-03-26T21:54:26.216Z,63.60
2023-03-26T21:57:14.096Z,63.50
2023-03-26T21:59:53.037Z,63.50
2023-03-26T22:02:42.244Z,63.80
2023-03-26T22:05:25.432Z,63.40
2023-03-26T22:08:06.015Z,63.50
2023-03-26T22:10:35.824Z,63.60
2023-03-26T22:13:05.438Z,64.00
2023-03-26T22:15:35.697Z,63.80
2023-03-26T22:18:06.266Z,63.70
2023-03-26T22:20:36.154Z,63.70
2023-03-26T22:23:07.382Z,63.50
2023-03-26T22:25:37.464Z,64.00
2023-03-26T22:28:07.665Z,64.00
2023-03-26T22:30:37.414Z,64.20
2023-03-26T22:33:07.507Z,64.00
2023-03-26T22:35:37.226Z,64.30
2023-03-26T22:38:07.500Z,64.40
2023-03-26T22:40:37.317Z,64.30
2023-03-26T22:43:06.994Z,64.50
2023-03-26T22:45:36.852Z,64.20
2023-03-26T22:48:06.604Z,64.30
2023-03-26T22:50:36.517Z,64.10
2023-03-26T22:53:06.576Z,64.20
2023-03-26T22:55:36.189Z,64.40
2023-03-26T22:58:05.879Z,64.50
2023-03-26T23:00:36.507Z,64.70
2023-03-26T23:03:06.250Z,64.90
2023-03-26T23:05:36.449Z,64.90
2023-03-26T23:08:06.558Z,64.80
2023-03-26T23:10:38.017Z,65.00
2023-03-26T23:13:07.811Z,65.00
2023-03-26T23:15:38.608Z,65.10
2023-03-26T23:18:08.973Z,65.00
2023-03-26T23:20:41.670Z,65.00
2023-03-26T23:23:11.548Z,65.90
2023-03-26T23:25:42.383Z,65.00
2023-03-26T23:28:12.553Z,64.60
2023-03-26T23:30:42.217Z,64.90
2023-03-26T23:33:12.926Z,64.90
2023-03-26T23:35:45.826Z,64.70
2023-03-26T23:38:15.596Z,64.70
2023-03-26T23:40:56.973Z,64.60
2023-03-26T23:43:28.323Z,64.50
2023-03-26T23:45:59.863Z,64.90
2023-03-26T23:48:31.172Z,64.80
2023-03-26T23:51:03.916Z,64.80
2023-03-26T23:53:34.862Z,65.00
2023-03-26T23:56:05.383Z,64.80
2023-03-26T23:58:35.133Z,64.90
